Time;durP1;ratioP1;P1;durP2;ratioP2;P2;SDS_P1;SDS_P2;PMS_P1;PMS_P2;Temp;Humidity;BMP_temperature;BMP_pressure;BME280_temperature;BME280_humidity;BME280_pressure;Samples;Min_cycle;Max_cycle;Signal;HPM_P1;HPM_P2
2023/09/01 00:00:48;;;;;;;0.17;0.17;;;13.00;99.90;;;;;;5044224;28;20086;-77
2023/09/01 00:03:13;;;;;;;0.10;0.10;;;12.90;99.90;;;;;;5046794;28;20124;-77
2023/09/01 00:05:39;;;;;;;0.20;0.20;;;13.00;99.90;;;;;;5030742;28;20084;-77
2023/09/01 00:08:07;;;;;;;0.10;0.10;;;13.00;99.90;;;;;;5042266;28;20059;-77
2023/09/01 00:10:35;;;;;;;0.10;0.10;;;12.90;99.90;;;;;;5026618;28;20420;-78
2023/09/01 00:13:01;;;;;;;0.20;0.20;;;12.80;99.90;;;;;;5029681;28;20078;-77
2023/09/01 00:15:27;;;;;;;0.20;0.20;;;12.90;99.90;;;;;;5030011;28;20053;-78
2023/09/01 00:17:52;;;;;;;0.10;0.10;;;12.80;99.90;;;;;;5047333;28;20374;-77
2023/09/01 00:20:18;;;;;;;0.15;0.15;;;12.80;99.90;;;;;;5027277;28;20068;-77
2023/09/01 00:22:44;;;;;;;0.10;0.10;;;12.80;99.90;;;;;;5029020;28;20045;-78
2023/09/01 00:25:09;;;;;;;0.10;0.10;;;12.80;99.90;;;;;;5048309;28;20047;-77
2023/09/01 00:27:35;;;;;;;0.10;0.10;;;12.80;99.90;;;;;;5041804;28;20127;-77
2023/09/01 00:30:01;;;;;;;0.10;0.10;;;12.70;99.90;;;;;;5027400;28;20044;-77
2023/09/01 00:32:26;;;;;;;0.10;0.10;;;12.70;99.90;;;;;;5025788;28;20047;-77
2023/09/01 00:34:56;;;;;;;0.10;0.10;;;12.70;99.90;;;;;;5025953;28;20668;-77
2023/09/01 00:37:25;;;;;;;0.10;0.10;;;12.70;99.90;;;;;;5046083;28;20045;-78
2023/09/01 00:39:51;;;;;;;0.17;0.17;;;12.70;99.90;;;;;;5045364;28;20231;-77
2023/09/01 00:42:17;;;;;;;0.10;0.10;;;12.60;99.90;;;;;;5029068;28;20139;-77
2023/09/01 00:44:42;;;;;;;0.10;0.10;;;12.60;99.90;;;;;;5046541;28;20119;-77
2023/09/01 00:47:08;;;;;;;0.10;0.10;;;12.60;99.90;;;;;;5026299;28;20529;-77
2023/09/01 00:49:37;;;;;;;0.20;0.20;;;12.60;99.90;;;;;;5045453;28;20049;-77
2023/09/01 00:52:03;;;;;;;0.10;0.10;;;12.60;99.90;;;;;;5027097;28;20511;-77
2023/09/01 00:54:31;;;;;;;0.17;0.17;;;12.60;99.90;;;;;;5042607;28;20049;-77
2023/09/01 00:56:57;;;;;;;0.10;0.10;;;12.50;99.90;;;;;;5046285;28;20435;-77
2023/09/01 00:59:23;;;;;;;0.10;0.10;;;12.50;99.90;;;;;;5032912;28;20095;-77
2023/09/01 01:01:50;;;;;;;0.15;0.15;;;12.50;99.90;;;;;;5045376;28;20488;-77
2023/09/01 01:04:17;;;;;;;0.10;0.10;;;12.40;99.90;;;;;;5051356;28;20526;-77
2023/09/01 01:07:06;;;;;;;0.10;0.10;;;12.40;99.90;;;;;;5030869;28;20053;-77
2023/09/01 01:09:57;;;;;;;0.20;0.20;;;12.40;99.90;;;;;;5029639;28;20037;-77
2023/09/01 01:12:39;;;;;;;0.20;0.20;;;12.40;99.90;;;;;;5047137;28;20044;-77
2023/09/01 01:15:09;;;;;;;0.20;0.20;;;12.40;99.90;;;;;;5030488;28;20048;-78
2023/09/01 01:17:39;;;;;;;0.10;0.10;;;12.40;99.90;;;;;;5030183;28;20098;-77
2023/09/01 01:20:27;;;;;;;0.20;0.20;;;12.40;99.90;;;;;;5031520;28;20110;-77
2023/09/01 01:23:14;;;;;;;0.20;0.20;;;12.40;99.90;;;;;;5030456;28;20419;-77
2023/09/01 01:25:53;;;;;;;0.10;0.10;;;12.30;99.90;;;;;;5038509;28;20048;-77
2023/09/01 01:28:20;;;;;;;0.20;0.20;;;12.30;99.90;;;;;;5046457;28;20177;-77
2023/09/01 01:30:47;;;;;;;0.20;0.20;;;12.30;99.90;;;;;;5049962;28;20076;-77
2023/09/01 01:33:27;;;;;;;0.20;0.20;;;12.30;99.90;;;;;;5030566;28;20044;-77
2023/09/01 01:36:27;;;;;;;0.10;0.10;;;12.30;99.90;;;;;;5031208;28;20052;-77
2023/09/01 01:39:05;;;;;;;0.13;0.13;;;12.30;99.90;;;;;;5015474;28;20056;-77
2023/09/01 01:41:41;;;;;;;0.10;0.10;;;12.30;99.90;;;;;;5032433;28;20071;-78
2023/09/01 01:44:10;;;;;;;0.10;0.10;;;12.30;99.90;;;;;;5023324;28;20045;-77
2023/09/01 01:46:37;;;;;;;0.20;0.20;;;12.30;99.90;;;;;;5047574;28;20044;-77
2023/09/01 01:49:08;;;;;;;0.10;0.10;;;12.20;99.90;;;;;;5023673;28;20492;-77
2023/09/01 01:51:34;;;;;;;0.20;0.20;;;12.30;99.90;;;;;;5030391;28;20412;-77
2023/09/01 01:53:59;;;;;;;0.20;0.20;;;12.20;99.90;;;;;;5031883;28;20045;-77
2023/09/01 01:56:26;;;;;;;0.20;0.20;;;12.20;99.90;;;;;;5021845;28;20049;-77
2023/09/01 01:58:51;;;;;;;0.20;0.20;;;12.20;99.90;;;;;;5021043;28;20123;-77
2023/09/01 02:01:17;;;;;;;0.10;0.10;;;12.20;99.90;;;;;;5049581;28;20748;-77
2023/09/01 02:03:42;;;;;;;0.20;0.20;;;12.20;99.90;;;;;;5029222;28;20102;-77
2023/09/01 02:06:08;;;;;;;0.15;0.15;;;12.20;99.90;;;;;;5031758;28;20061;-76
2023/09/01 02:08:34;;;;;;;0.20;0.20;;;12.10;99.90;;;;;;5028868;28;20370;-77
2023/09/01 02:10:59;;;;;;;0.10;0.10;;;12.10;99.90;;;;;;5049223;28;20136;-77
2023/09/01 02:13:25;;;;;;;0.20;0.20;;;12.20;99.90;;;;;;5031822;28;20036;-76
2023/09/01 02:15:52;;;;;;;0.10;0.10;;;12.10;99.90;;;;;;5049457;28;20044;-77
2023/09/01 02:18:18;;;;;;;0.10;0.10;;;12.10;99.90;;;;;;5022417;28;20095;-77
2023/09/01 02:20:44;;;;;;;0.10;0.10;;;12.10;99.90;;;;;;5030767;28;20434;-77
2023/09/01 02:23:09;;;;;;;0.17;0.17;;;12.10;99.90;;;;;;5047039;28;20037;-77
2023/09/01 02:25:37;;;;;;;0.10;0.10;;;12.10;99.90;;;;;;5048650;28;20128;-77
2023/09/01 02:28:04;;;;;;;0.10;0.10;;;12.10;99.90;;;;;;5031515;28;20175;-77
2023/09/01 02:30:30;;;;;;;0.17;0.17;;;12.10;99.90;;;;;;5032666;28;20059;-76
2023/09/01 02:32:56;;;;;;;0.20;0.20;;;12.10;99.90;;;;;;5030978;28;20068;-77
2023/09/01 02:35:22;;;;;;;0.10;0.10;;;12.00;99.90;;;;;;5048293;28;20083;-77
2023/09/01 02:37:49;;;;;;;0.10;0.10;;;12.00;99.90;;;;;;5018032;28;20040;-77
2023/09/01 02:40:15;;;;;;;0.10;0.10;;;12.10;99.90;;;;;;5030144;28;20037;-77
2023/09/01 02:42:42;;;;;;;0.20;0.20;;;11.90;99.90;;;;;;5029678;28;20063;-77
2023/09/01 02:45:12;;;;;;;0.10;0.10;;;12.00;99.90;;;;;;5026659;28;20029;-77
2023/09/01 02:47:37;;;;;;;0.20;0.20;;;11.90;99.90;;;;;;5026909;28;20052;-77
2023/09/01 02:50:04;;;;;;;0.15;0.15;;;11.90;99.90;;;;;;5028597;28;20047;-77
2023/09/01 02:52:30;;;;;;;0.10;0.10;;;11.90;99.90;;;;;;5040974;28;20574;-77
2023/09/01 02:54:56;;;;;;;0.20;0.20;;;11.90;99.90;;;;;;5047176;28;20083;-76
2023/09/01 02:57:22;;;;;;;0.10;0.10;;;11.90;99.90;;;;;;5027339;28;20076;-78
2023/09/01 02:59:49;;;;;;;0.20;0.20;;;11.90;99.90;;;;;;5046013;28;20043;-78
2023/09/01 03:02:15;;;;;;;0.20;0.20;;;11.90;99.90;;;;;;5044544;28;20048;-77
2023/09/01 03:04:41;;;;;;;0.20;0.20;;;11.90;99.90;;;;;;5047308;28;20049;-77
2023/09/01 03:07:07;;;;;;;0.15;0.15;;;11.90;99.90;;;;;;5043084;28;20055;-77
2023/09/01 03:09:32;;;;;;;0.13;0.13;;;11.90;99.90;;;;;;5029947;28;20029;-77
2023/09/01 03:11:58;;;;;;;0.10;0.10;;;11.80;99.90;;;;;;5048878;28;20045;-77
2023/09/01 03:14:24;;;;;;;0.17;0.17;;;11.80;99.90;;;;;;5029695;28;20044;-77
2023/09/01 03:16:50;;;;;;;0.15;0.15;;;11.80;99.90;;;;;;5047153;28;20041;-77
2023/09/01 03:19:16;;;;;;;0.20;0.20;;;11.80;99.90;;;;;;5049738;28;20112;-77
2023/09/01 03:21:42;;;;;;;0.10;0.10;;;11.80;99.90;;;;;;5047610;28;20051;-77
2023/09/01 03:24:07;;;;;;;0.10;0.10;;;11.80;99.90;;;;;;5030508;28;20073;-77
2023/09/01 03:26:33;;;;;;;0.20;0.20;;;11.70;99.90;;;;;;5031073;28;20084;-77
2023/09/01 03:29:00;;;;;;;0.10;0.10;;;11.80;99.90;;;;;;5029147;28;20036;-77
2023/09/01 03:31:25;;;;;;;0.20;0.20;;;11.70;99.90;;;;;;5047274;28;20062;-77
2023/09/01 03:33:51;;;;;;;0.10;0.10;;;11.80;99.90;;;;;;5030159;28;20045;-77
2023/09/01 03:36:17;;;;;;;0.10;0.10;;;11.20;99.90;;;;;;5031260;28;20048;-77
2023/09/01 03:38:42;;;;;;;0.20;0.20;;;11.80;99.90;;;;;;5047829;28;20044;-77
2023/09/01 03:41:08;;;;;;;0.10;0.10;;;11.80;99.90;;;;;;5025751;28;20824;-78
2023/09/01 03:43:34;;;;;;;0.20;0.20;;;11.80;99.90;;;;;;5029329;28;20048;-78
2023/09/01 03:46:00;;;;;;;0.20;0.20;;;11.80;99.90;;;;;;5030365;28;20048;-77
2023/09/01 03:48:26;;;;;;;0.20;0.20;;;11.70;99.90;;;;;;5027099;28;20037;-77
2023/09/01 03:51:15;;;;;;;0.20;0.20;;;11.80;99.90;;;;;;5028771;28;20041;-78
2023/09/01 03:53:40;;;;;;;0.10;0.10;;;11.80;99.90;;;;;;5025470;28;20381;-77
2023/09/01 03:56:15;;;;;;;0.17;0.17;;;11.80;99.90;;;;;;5026408;28;20044;-77
2023/09/01 03:58:41;;;;;;;0.10;0.10;;;11.80;99.90;;;;;;5045327;28;20554;-77
2023/09/01 04:01:11;;;;;;;0.10;0.10;;;11.70;99.90;;;;;;5027829;28;20045;-77
2023/09/01 04:03:41;;;;;;;0.10;0.10;;;11.70;99.90;;;;;;5027031;28;20083;-78
2023/09/01 04:06:07;;;;;;;0.20;0.20;;;11.80;99.90;;;;;;5027205;28;20056;-77
2023/09/01 04:08:37;;;;;;;0.20;0.20;;;11.70;99.90;;;;;;5029017;28;20072;-77
2023/09/01 04:11:03;;;;;;;0.20;0.20;;;11.70;99.90;;;;;;5026150;28;20053;-78
2023/09/01 04:13:32;;;;;;;0.10;0.10;;;11.70;99.90;;;;;;5047040;28;20190;-78
2023/09/01 04:15:58;;;;;;;0.10;0.10;;;11.70;99.90;;;;;;5027771;28;20041;-78
2023/09/01 04:18:24;;;;;;;0.10;0.10;;;11.70;99.90;;;;;;5028239;28;20037;-78
2023/09/01 04:20:51;;;;;;;0.20;0.20;;;11.60;99.90;;;;;;5025604;28;20147;-78
2023/09/01 04:23:17;;;;;;;0.20;0.20;;;11.60;99.90;;;;;;5025278;28;20132;-78
2023/09/01 04:25:47;;;;;;;0.10;0.10;;;11.60;99.90;;;;;;5046073;28;20096;-78
2023/09/01 04:28:14;;;;;;;0.20;0.20;;;11.60;99.90;;;;;;5029914;28;20044;-77
2023/09/01 04:30:40;;;;;;;0.10;0.10;;;11.50;99.90;;;;;;5026457;28;20042;-78
2023/09/01 04:33:06;;;;;;;0.10;0.10;;;11.50;99.90;;;;;;5023434;28;20099;-77
2023/09/01 04:35:33;;;;;;;0.10;0.10;;;11.50;99.90;;;;;;5034678;28;20069;-78
2023/09/01 04:37:58;;;;;;;0.10;0.10;;;11.50;99.90;;;;;;5050982;28;20543;-78
2023/09/01 04:40:26;;;;;;;0.10;0.10;;;11.50;99.90;;;;;;5031993;28;20037;-78
2023/09/01 04:42:52;;;;;;;0.20;0.20;;;11.40;99.90;;;;;;5033387;28;20041;-78
2023/09/01 04:45:18;;;;;;;0.13;0.13;;;11.60;99.90;;;;;;5032437;28;20072;-78
2023/09/01 04:47:43;;;;;;;0.13;0.13;;;11.50;99.90;;;;;;5033936;28;20431;-78
2023/09/01 04:50:09;;;;;;;0.10;0.10;;;11.40;99.90;;;;;;5032768;28;20076;-78
2023/09/01 04:52:36;;;;;;;0.13;0.13;;;11.50;99.90;;;;;;5029943;28;20041;-79
2023/09/01 04:55:03;;;;;;;0.10;0.10;;;11.40;99.90;;;;;;5031808;28;20416;-77
2023/09/01 04:57:30;;;;;;;0.20;0.20;;;11.40;99.90;;;;;;5028389;28;20086;-77
2023/09/01 04:59:56;;;;;;;0.20;0.20;;;11.40;99.90;;;;;;5030768;28;20037;-77
2023/09/01 05:02:22;;;;;;;0.10;0.10;;;11.50;99.90;;;;;;5025069;28;20508;-77
2023/09/01 05:04:47;;;;;;;0.10;0.10;;;11.40;99.90;;;;;;5043218;28;20818;-78
2023/09/01 05:07:13;;;;;;;0.20;0.20;;;11.30;99.90;;;;;;5030911;28;20057;-77
2023/09/01 05:09:39;;;;;;;0.15;0.15;;;11.30;99.90;;;;;;5031284;28;20154;-77
2023/09/01 05:12:05;;;;;;;0.10;0.10;;;11.30;99.90;;;;;;5031207;28;20038;-77
2023/09/01 05:14:30;;;;;;;0.20;0.20;;;11.30;99.90;;;;;;5049960;28;20461;-79
2023/09/01 05:16:56;;;;;;;0.10;0.10;;;11.30;99.90;;;;;;5031282;28;20056;-77
2023/09/01 05:19:22;;;;;;;0.20;0.20;;;11.30;99.90;;;;;;5033010;28;20035;-77
2023/09/01 05:21:48;;;;;;;0.20;0.20;;;11.30;99.90;;;;;;5031448;28;20147;-77
2023/09/01 05:24:14;;;;;;;0.20;0.20;;;11.30;99.90;;;;;;5048455;28;20060;-77
2023/09/01 05:26:40;;;;;;;0.20;0.20;;;11.30;99.90;;;;;;5027572;28;20036;-77
2023/09/01 05:29:06;;;;;;;0.13;0.13;;;11.30;99.90;;;;;;5031099;28;20095;-77
2023/09/01 05:31:31;;;;;;;0.10;0.10;;;11.30;99.90;;;;;;5032228;28;20136;-78
2023/09/01 05:33:57;;;;;;;0.10;0.10;;;11.30;99.90;;;;;;5030426;28;20041;-78
2023/09/01 05:36:23;;;;;;;0.20;0.20;;;11.30;99.90;;;;;;5045355;28;20033;-77
2023/09/01 05:38:48;;;;;;;0.20;0.20;;;11.50;99.90;;;;;;5030765;28;20033;-77
2023/09/01 05:41:14;;;;;;;0.20;0.20;;;11.40;99.90;;;;;;5028190;28;20413;-77
2023/09/01 05:43:40;;;;;;;0.20;0.20;;;11.50;99.90;;;;;;5030009;28;20041;-77
2023/09/01 05:46:06;;;;;;;0.10;0.10;;;11.50;99.90;;;;;;5049524;28;20144;-80
2023/09/01 05:48:31;;;;;;;0.10;0.10;;;11.50;99.90;;;;;;5029055;28;20122;-78
2023/09/01 05:50:57;;;;;;;0.30;0.30;;;11.60;99.90;;;;;;5045884;28;20488;-78
2023/09/01 05:53:23;;;;;;;0.13;0.13;;;11.60;99.90;;;;;;5029485;28;20083;-78
2023/09/01 05:55:48;;;;;;;0.10;0.10;;;11.70;99.90;;;;;;5047894;28;20057;-78
2023/09/01 05:58:14;;;;;;;0.20;0.20;;;11.80;99.90;;;;;;5030252;28;20090;-78
2023/09/01 06:00:40;;;;;;;0.10;0.10;;;11.90;99.90;;;;;;5032207;28;20422;-78
2023/09/01 06:03:06;;;;;;;0.20;0.20;;;11.90;99.90;;;;;;5030767;28;20036;-78
2023/09/01 06:05:31;;;;;;;0.17;0.17;;;12.10;99.90;;;;;;5028016;28;20118;-78
2023/09/01 06:07:58;;;;;;;0.15;0.15;;;12.00;99.90;;;;;;5026065;28;20390;-78
2023/09/01 06:10:23;;;;;;;0.10;0.10;;;12.20;99.90;;;;;;5028807;28;20041;-78
2023/09/01 06:12:49;;;;;;;0.20;0.20;;;12.20;99.90;;;;;;5027386;28;20149;-78
2023/09/01 06:15:15;;;;;;;0.20;0.20;;;12.30;99.90;;;;;;5029217;28;20036;-78
2023/09/01 06:17:40;;;;;;;0.20;0.20;;;12.30;99.90;;;;;;5031298;28;20059;-79
2023/09/01 06:20:07;;;;;;;0.20;0.20;;;12.40;99.90;;;;;;5037519;28;20045;-79
2023/09/01 06:22:33;;;;;;;0.10;0.10;;;12.40;99.90;;;;;;5025386;28;20445;-78
2023/09/01 06:24:59;;;;;;;0.10;0.10;;;12.50;99.90;;;;;;5028891;28;20435;-79
2023/09/01 06:27:24;;;;;;;0.13;0.13;;;12.50;99.90;;;;;;5027407;28;20041;-78
2023/09/01 06:29:50;;;;;;;0.10;0.10;;;12.60;99.90;;;;;;5033019;28;20469;-78
2023/09/01 06:32:16;;;;;;;0.20;0.20;;;12.60;99.90;;;;;;5023397;28;20240;-78
2023/09/01 06:34:42;;;;;;;0.10;0.10;;;12.70;99.90;;;;;;5041960;28;20041;-79
2023/09/01 06:37:08;;;;;;;0.10;0.10;;;12.70;99.90;;;;;;5031168;28;20045;-79
2023/09/01 06:39:33;;;;;;;0.20;0.20;;;12.80;99.90;;;;;;5029113;28;20500;-78
2023/09/01 06:41:59;;;;;;;0.20;0.20;;;12.70;99.90;;;;;;5047112;28;20053;-78
2023/09/01 06:44:25;;;;;;;0.10;0.10;;;12.80;99.90;;;;;;5045195;28;20033;-78
2023/09/01 06:46:51;;;;;;;0.13;0.13;;;12.90;99.90;;;;;;5030186;28;20069;-79
2023/09/01 06:49:16;;;;;;;0.10;0.10;;;12.90;99.90;;;;;;5049992;28;20060;-78
2023/09/01 06:51:42;;;;;;;0.10;0.10;;;12.90;99.90;;;;;;5024435;28;20412;-78
2023/09/01 06:54:08;;;;;;;0.10;0.10;;;13.00;99.90;;;;;;5017329;28;20033;-78
2023/09/01 06:56:34;;;;;;;0.10;0.10;;;13.10;99.90;;;;;;5049952;28;20129;-78
2023/09/01 06:58:59;;;;;;;0.20;0.20;;;13.10;99.90;;;;;;5048716;28;20036;-78
2023/09/01 07:01:27;;;;;;;0.10;0.10;;;13.20;99.90;;;;;;5029122;28;20041;-79
2023/09/01 07:03:54;;;;;;;0.20;0.20;;;13.20;99.90;;;;;;5040714;28;20049;-77
2023/09/01 07:06:19;;;;;;;0.13;0.13;;;13.30;99.90;;;;;;5043368;28;20381;-77
2023/09/01 07:08:45;;;;;;;0.10;0.10;;;13.30;99.90;;;;;;5043334;28;20037;-79
2023/09/01 07:11:14;;;;;;;0.20;0.20;;;13.40;99.90;;;;;;5028288;28;20076;-79
2023/09/01 07:13:43;;;;;;;0.20;0.20;;;13.50;99.90;;;;;;5022708;28;20069;-79
2023/09/01 07:16:09;;;;;;;0.20;0.20;;;13.60;99.90;;;;;;5029357;28;20045;-80
2023/09/01 07:18:35;;;;;;;0.10;0.10;;;13.60;99.90;;;;;;5029343;28;20037;-79
2023/09/01 07:21:00;;;;;;;0.20;0.20;;;13.70;99.90;;;;;;5012136;28;20125;-80
2023/09/01 07:23:27;;;;;;;0.20;0.20;;;13.80;99.90;;;;;;5044347;28;20432;-78
2023/09/01 07:25:54;;;;;;;0.13;0.13;;;13.80;99.90;;;;;;5020158;28;20045;-79
2023/09/01 07:28:20;;;;;;;0.15;0.15;;;13.80;99.90;;;;;;5044417;28;20463;-79
2023/09/01 07:30:46;;;;;;;0.20;0.20;;;13.90;99.90;;;;;;5023253;28;20067;-79
2023/09/01 07:33:12;;;;;;;0.20;0.20;;;14.00;99.90;;;;;;5043878;28;20048;-79
2023/09/01 07:35:38;;;;;;;0.20;0.20;;;14.00;99.90;;;;;;5025858;28;20487;-79
2023/09/01 07:38:04;;;;;;;0.10;0.10;;;14.00;99.90;;;;;;5016400;28;20049;-78
2023/09/01 07:40:32;;;;;;;0.13;0.13;;;14.10;99.90;;;;;;5043134;28;20063;-78
2023/09/01 07:42:59;;;;;;;0.20;0.20;;;14.20;99.90;;;;;;5041261;28;20520;-79
2023/09/01 07:45:26;;;;;;;0.10;0.10;;;14.30;99.90;;;;;;5039537;28;20044;-78
2023/09/01 07:47:52;;;;;;;0.10;0.10;;;14.30;99.90;;;;;;5020101;28;20049;-79
2023/09/01 07:50:18;;;;;;;0.17;0.17;;;14.40;99.90;;;;;;5027163;28;20051;-79
2023/09/01 07:52:43;;;;;;;0.10;0.10;;;14.50;99.90;;;;;;5031974;28;20078;-79
2023/09/01 07:55:09;;;;;;;0.15;0.15;;;14.50;99.90;;;;;;5031951;28;20121;-78
2023/09/01 07:57:35;;;;;;;0.10;0.10;;;14.60;99.90;;;;;;5029384;28;20047;-79
2023/09/01 08:00:00;;;;;;;0.10;0.10;;;14.70;99.90;;;;;;5049226;28;20036;-78
2023/09/01 08:02:27;;;;;;;0.10;0.10;;;14.70;99.90;;;;;;5049227;28;20115;-79
2023/09/01 08:04:52;;;;;;;0.17;0.17;;;14.90;99.90;;;;;;5044140;28;20049;-79
2023/09/01 08:07:18;;;;;;;0.10;0.10;;;14.90;99.90;;;;;;5015395;28;20123;-79
2023/09/01 08:09:44;;;;;;;0.10;0.10;;;14.90;99.90;;;;;;5022170;28;20037;-79
2023/09/01 08:12:09;;;;;;;0.10;0.10;;;15.00;99.90;;;;;;5018676;28;20468;-78
2023/09/01 08:14:35;;;;;;;0.17;0.17;;;15.00;99.90;;;;;;5048049;28;20029;-79
2023/09/01 08:17:01;;;;;;;0.20;0.20;;;15.10;99.90;;;;;;5025938;28;20080;-79
2023/09/01 08:19:26;;;;;;;0.13;0.13;;;15.10;99.90;;;;;;5026912;28;20037;-79
2023/09/01 08:21:52;;;;;;;0.10;0.10;;;15.20;99.90;;;;;;5023638;28;20447;-79
2023/09/01 08:24:18;;;;;;;0.20;0.20;;;15.30;99.90;;;;;;5023247;28;20044;-79
2023/09/01 08:26:43;;;;;;;0.20;0.20;;;15.30;99.90;;;;;;5041357;28;20090;-79
2023/09/01 08:29:09;;;;;;;0.20;0.20;;;15.40;99.90;;;;;;5020845;28;20484;-79
2023/09/01 08:31:35;;;;;;;0.20;0.20;;;15.40;99.90;;;;;;5030208;28;20078;-79
2023/09/01 08:34:01;;;;;;;0.20;0.20;;;15.50;99.90;;;;;;5023601;28;20396;-80
2023/09/01 08:36:28;;;;;;;0.20;0.20;;;15.60;99.90;;;;;;5043450;28;20489;-80
2023/09/01 08:38:54;;;;;;;0.10;0.10;;;15.60;99.90;;;;;;5048314;28;20045;-81
2023/09/01 08:41:21;;;;;;;0.20;0.20;;;15.60;99.90;;;;;;5027768;28;20090;-81
2023/09/01 08:43:50;;;;;;;0.10;0.10;;;15.70;99.90;;;;;;5039928;28;20045;-80
2023/09/01 08:46:21;;;;;;;0.10;0.10;;;15.80;99.90;;;;;;5018795;28;20037;-78
2023/09/01 08:48:46;;;;;;;0.20;0.20;;;15.80;99.90;;;;;;5048264;28;20049;-80
2023/09/01 08:51:14;;;;;;;0.20;0.20;;;15.80;99.90;;;;;;5029334;28;20601;-80
2023/09/01 08:53:42;;;;;;;0.20;0.20;;;15.90;99.90;;;;;;5027288;28;20090;-80
2023/09/01 08:56:07;;;;;;;0.10;0.10;;;15.90;99.90;;;;;;5013021;28;20041;-79
2023/09/01 08:58:33;;;;;;;0.10;0.10;;;16.00;99.90;;;;;;5026874;28;20049;-81
2023/09/01 09:00:59;;;;;;;0.20;0.20;;;16.00;99.90;;;;;;5044723;28;20045;-80
2023/09/01 09:03:24;;;;;;;0.20;0.20;;;16.10;99.90;;;;;;5025544;28;20053;-80
2023/09/01 09:05:50;;;;;;;0.10;0.10;;;16.10;99.90;;;;;;5018093;28;20076;-80
2023/09/01 09:08:18;;;;;;;0.10;0.10;;;16.10;99.90;;;;;;5023008;28;20052;-81
2023/09/01 09:10:47;;;;;;;0.13;0.13;;;16.20;99.90;;;;;;5028613;28;20396;-79
2023/09/01 09:13:27;;;;;;;0.10;0.10;;;16.30;99.90;;;;;;5040855;28;20056;-79
2023/09/01 09:16:14;;;;;;;0.10;0.10;;;16.30;99.90;;;;;;5028544;28;20052;-79
2023/09/01 09:18:42;;;;;;;0.10;0.10;;;16.30;99.90;;;;;;5026989;28;20045;-78
2023/09/01 09:21:28;;;;;;;0.10;0.10;;;16.40;99.90;;;;;;5019149;28;20037;-78
2023/09/01 09:23:59;;;;;;;0.10;0.10;;;16.40;99.90;;;;;;5024394;28;20076;-77
2023/09/01 09:26:28;;;;;;;0.20;0.20;;;16.40;99.90;;;;;;5041240;28;20045;-77
2023/09/01 09:28:54;;;;;;;0.10;0.10;;;16.40;99.90;;;;;;5043429;28;20382;-78
2023/09/01 09:31:37;;;;;;;0.10;0.10;;;16.50;99.90;;;;;;5031043;28;20512;-78
2023/09/01 09:34:15;;;;;;;0.10;0.10;;;16.50;99.90;;;;;;5048337;28;20515;-77
2023/09/01 09:36:41;;;;;;;0.10;0.10;;;16.50;99.90;;;;;;5031183;28;20075;-77
2023/09/01 09:39:24;;;;;;;0.20;0.20;;;16.50;99.90;;;;;;5033611;28;20045;-77
2023/09/01 09:41:50;;;;;;;0.17;0.17;;;16.60;99.90;;;;;;5050233;28;20041;-77
2023/09/01 09:44:36;;;;;;;0.20;0.20;;;16.60;99.90;;;;;;5031854;28;20080;-77
2023/09/01 09:47:09;;;;;;;0.10;0.10;;;16.70;99.90;;;;;;5032310;28;20049;-78
2023/09/01 09:49:37;;;;;;;0.10;0.10;;;16.70;99.90;;;;;;5032932;28;20461;-77
2023/09/01 09:52:07;;;;;;;0.10;0.10;;;16.80;99.90;;;;;;5022224;28;20400;-78
2023/09/01 09:54:37;;;;;;;0.20;0.20;;;16.80;99.90;;;;;;5033478;28;20048;-78
2023/09/01 09:57:13;;;;;;;0.10;0.10;;;16.80;99.90;;;;;;5031836;28;20111;-77
2023/09/01 09:59:57;;;;;;;0.20;0.20;;;16.90;99.90;;;;;;5031877;28;20045;-77
2023/09/01 10:02:30;;;;;;;0.10;0.10;;;16.90;99.90;;;;;;5035052;28;20056;-78
2023/09/01 10:04:58;;;;;;;0.17;0.17;;;16.90;99.90;;;;;;5031289;28;20519;-77
2023/09/01 10:07:24;;;;;;;0.10;0.10;;;16.90;99.90;;;;;;5033066;28;20194;-77
2023/09/01 10:09:51;;;;;;;0.20;0.20;;;17.00;99.90;;;;;;5050202;28;20049;-77
2023/09/01 10:12:17;;;;;;;0.10;0.10;;;17.00;99.90;;;;;;5030164;28;20063;-77
2023/09/01 10:14:45;;;;;;;0.13;0.13;;;17.00;99.90;;;;;;5032508;28;20124;-77
2023/09/01 10:17:14;;;;;;;0.20;0.20;;;17.00;99.90;;;;;;5030021;28;20040;-77
2023/09/01 10:19:41;;;;;;;0.10;0.10;;;17.10;99.90;;;;;;5035804;28;20044;-78
2023/09/01 10:22:07;;;;;;;0.20;0.20;;;17.10;99.90;;;;;;5053512;28;20166;-78
2023/09/01 10:24:33;;;;;;;0.10;0.10;;;17.10;99.90;;;;;;5047754;28;20649;-78
2023/09/01 10:27:07;;;;;;;0.10;0.10;;;17.10;99.90;;;;;;5014617;28;20056;-78
2023/09/01 10:29:36;;;;;;;0.13;0.13;;;17.20;99.90;;;;;;5049772;28;20112;-78
2023/09/01 10:32:16;;;;;;;0.10;0.10;;;17.30;99.90;;;;;;5046995;28;20052;-78
2023/09/01 10:34:53;;;;;;;0.20;0.20;;;17.40;99.90;;;;;;5027293;28;20044;-78
2023/09/01 10:37:27;;;;;;;0.20;0.20;;;17.50;99.90;;;;;;5021921;28;20122;-78
2023/09/01 10:39:53;;;;;;;0.10;0.10;;;17.60;99.90;;;;;;5040859;28;20053;-78
2023/09/01 10:42:39;;;;;;;0.20;0.20;;;17.70;99.90;;;;;;5033136;28;20063;-78
2023/09/01 10:45:05;;;;;;;0.20;0.20;;;17.70;99.90;;;;;;5051225;28;20079;-78
2023/09/01 10:47:31;;;;;;;0.10;0.10;;;17.70;99.90;;;;;;5048244;28;20049;-78
2023/09/01 10:50:01;;;;;;;0.10;0.10;;;17.80;99.90;;;;;;5050055;28;20122;-79
2023/09/01 10:52:28;;;;;;;0.20;0.20;;;17.90;99.90;;;;;;5030365;28;20157;-78
2023/09/01 10:55:00;;;;;;;0.10;0.10;;;18.00;99.90;;;;;;5011742;28;20045;-78
2023/09/01 10:57:42;;;;;;;0.20;0.20;;;18.00;99.90;;;;;;5031016;28;20400;-78
2023/09/01 11:00:31;;;;;;;0.20;0.20;;;18.10;99.90;;;;;;5032260;28;20045;-77
2023/09/01 11:03:31;;;;;;;0.20;0.20;;;18.30;99.90;;;;;;5031466;28;20033;-78
2023/09/01 11:06:01;;;;;;;0.20;0.20;;;18.50;99.90;;;;;;5050090;28;20037;-78
2023/09/01 11:08:28;;;;;;;0.20;0.20;;;18.60;99.90;;;;;;5031317;28;20040;-78
2023/09/01 11:10:58;;;;;;;0.20;0.20;;;18.60;99.90;;;;;;5032292;28;20056;-77
2023/09/01 11:13:25;;;;;;;0.20;0.20;;;18.80;99.90;;;;;;5032845;28;20041;-78
2023/09/01 11:15:51;;;;;;;0.17;0.17;;;18.90;99.90;;;;;;5049504;28;20091;-78
2023/09/01 11:18:21;;;;;;;0.20;0.20;;;19.00;99.90;;;;;;5032122;28;20082;-78
2023/09/01 11:20:48;;;;;;;0.20;0.20;;;19.20;99.90;;;;;;5031199;28;20496;-78
2023/09/01 11:23:19;;;;;;;0.20;0.20;;;19.30;99.90;;;;;;5030296;28;20131;-78
2023/09/01 11:25:45;;;;;;;;;;;19.40;99.90;;;;;;5031874;28;20099;-78
2023/09/01 11:28:14;;;;;;;0.20;0.20;;;19.40;99.90;;;;;;5031551;28;19921;-78
2023/09/01 11:30:56;;;;;;;0.20;0.20;;;19.40;99.90;;;;;;5032323;28;20265;-78
2023/09/01 11:33:23;;;;;;;0.20;0.20;;;19.40;99.90;;;;;;5049745;28;20040;-78
2023/09/01 11:36:02;;;;;;;0.15;0.15;;;19.30;99.90;;;;;;5048791;28;20070;-78
2023/09/01 11:38:27;;;;;;;0.20;0.20;;;19.40;99.90;;;;;;5049226;28;20496;-78
2023/09/01 11:40:54;;;;;;;0.20;0.20;;;19.50;99.90;;;;;;5048852;28;20039;-78
2023/09/01 11:43:20;;;;;;;0.20;0.20;;;19.60;99.90;;;;;;5031301;28;20041;-78
2023/09/01 11:45:47;;;;;;;0.20;0.20;;;19.70;99.90;;;;;;5031759;28;20295;-78
2023/09/01 11:48:26;;;;;;;0.20;0.20;;;19.80;99.90;;;;;;5031262;28;20425;-78
2023/09/01 11:51:00;;;;;;;0.20;0.20;;;19.90;99.90;;;;;;5030392;28;20563;-78
2023/09/01 11:53:27;;;;;;;0.20;0.20;;;20.10;99.90;;;;;;5021781;28;20056;-79
2023/09/01 11:56:01;;;;;;;0.20;0.20;;;20.10;99.90;;;;;;5024242;28;20041;-78
2023/09/01 11:58:32;;;;;;;0.20;0.20;;;20.30;99.90;;;;;;5049031;28;20052;-78
2023/09/01 12:01:12;;;;;;;0.20;0.20;;;20.50;99.90;;;;;;5031134;28;20048;-78
2023/09/01 12:03:38;;;;;;;0.20;0.20;;;20.70;99.90;;;;;;5049072;28;20045;-78
2023/09/01 12:06:20;;;;;;;0.20;0.20;;;20.90;99.90;;;;;;5049268;28;20404;-78
2023/09/01 12:08:46;;;;;;;0.20;0.20;;;21.00;99.90;;;;;;5013409;28;20152;-78
2023/09/01 12:11:16;;;;;;;0.20;0.20;;;21.20;99.90;;;;;;5026553;28;20098;-78
2023/09/01 12:13:45;;;;;;;0.20;0.20;;;21.40;99.90;;;;;;5031207;28;20048;-78
2023/09/01 12:16:22;;;;;;;0.20;0.20;;;21.50;99.90;;;;;;5030977;28;20432;-78
2023/09/01 12:18:49;;;;;;;0.20;0.20;;;21.60;99.90;;;;;;5030157;28;20103;-78
2023/09/01 12:21:15;;;;;;;0.20;0.20;;;21.60;99.90;;;;;;5011550;28;20049;-79
2023/09/01 12:23:42;;;;;;;0.20;0.20;;;21.50;99.90;;;;;;5011494;28;20052;-78
2023/09/01 12:26:08;;;;;;;0.17;0.17;;;21.50;99.90;;;;;;5028818;28;20053;-78
2023/09/01 12:28:35;;;;;;;0.20;0.20;;;21.50;99.90;;;;;;5011821;28;20048;-78
2023/09/01 12:31:02;;;;;;;0.20;0.20;;;21.60;99.90;;;;;;5025400;28;20037;-78
2023/09/01 12:33:28;;;;;;;0.20;0.20;;;21.70;99.90;;;;;;5028941;28;20650;-78
2023/09/01 12:35:54;;;;;;;0.20;0.20;;;21.80;99.90;;;;;;5030044;28;20123;-78
2023/09/01 12:38:20;;;;;;;0.20;0.20;;;22.10;99.90;;;;;;5026476;28;20378;-78
2023/09/01 12:40:47;;;;;;;0.20;0.20;;;22.30;99.90;;;;;;5039622;28;20306;-79
2023/09/01 12:43:13;;;;;;;0.20;0.20;;;22.40;99.90;;;;;;5022039;28;20045;-78
2023/09/01 12:45:39;;;;;;;0.20;0.20;;;22.50;99.90;;;;;;5049071;28;20080;-78
2023/09/01 12:48:05;;;;;;;0.20;0.20;;;22.70;99.90;;;;;;5030755;28;20049;-78
2023/09/01 12:50:31;;;;;;;0.20;0.20;;;22.80;99.90;;;;;;5031686;28;20043;-78
2023/09/01 12:52:58;;;;;;;0.20;0.20;;;23.00;99.90;;;;;;5033623;28;20040;-79